Oberon — SKJF — position and weather

sailwx.info

Track history (hours):
 
Tides and Currents Weather Stations Pressure Air Temp Water Temp Dewpoint Dewpoint Depression Visibility Wind Speed Wind Dir Waves Ship Positions

Oberon

Last reported at 2014-Jul-23 06:26 UTC. Time now 2014-Jul-25 16:06 UTC.
Position N 36°50' W 075°29'.

Length 232 m; draft 9.4 m.

Type: Cargo ship. MMSI: 266283000.

Date/timePositionNaut miles runAvg speedWind from/ knotsBaromVisibWave heightAir tempDewpointWater temp
2014-Jul-23 06:26N 36°50' W 075°29'1616.8
2014-Jul-23 05:30N 36°50' W 075°49'1515.8
2014-Jul-23 04:33N 37°01' W 076°02'1717.4
2014-Jul-23 03:34N 37°18' W 076°07'1817.7
2014-Jul-23 02:33N 37°35' W 076°04'1717.1
2014-Jul-23 01:34N 37°52' W 076°10'2018.7
2014-Jul-23 00:30N 38°11' W 076°14'3719.2
2014-Jul-22 22:33N 38°47' W 076°25'1716.8
2014-Jul-22 21:33N 39°04' W 076°24'1211.9
2014-Jul-22 20:33N 39°14' W 076°33'2 2.1
2014-Jul-22 19:33N 39°15' W 076°35'0 0.0
2014-Jul-22 18:33N 39°15' W 076°35'0 0.0
2014-Jul-22 17:30N 39°15' W 076°35'0 0.0
2014-Jul-22 16:33N 39°15' W 076°35'0 0.0
2014-Jul-22 15:33N 39°15' W 076°35'0 0.0
2014-Jul-22 14:33N 39°15' W 076°35'0 0.0
2014-Jul-22 13:33N 39°15' W 076°35'0 0.0
2014-Jul-22 12:30N 39°15' W 076°35'0 0.0
2014-Jul-22 11:33N 39°15' W 076°35'0 0.0
2014-Jul-22 10:33N 39°15' W 076°35'0 0.0
2014-Jul-22 09:33N 39°15' W 076°35'0 0.0
2014-Jul-22 08:33N 39°15' W 076°35'0 0.0
2014-Jul-22 07:33N 39°15' W 076°35'0 0.0
2014-Jul-22 06:33N 39°15' W 076°35'0 0.0
2014-Jul-22 05:33N 39°15' W 076°35'0 0.0
2014-Jul-22 04:33N 39°15' W 076°35'2 2.2
2014-Jul-22 03:33N 39°14' W 076°32'1 0.5
2014-Jul-22 02:32N 39°14' W 076°32'0 0.0
2014-Jul-22 01:32N 39°14' W 076°32'0 0.0
2014-Jul-22 00:32N 39°14' W 076°32'0 0.0
2014-Jul-21 23:32N 39°14' W 076°32'0 0.0
2014-Jul-21 22:32N 39°14' W 076°32'0 0.0
2014-Jul-21 21:32N 39°14' W 076°32'0 0.0
2014-Jul-21 20:32N 39°14' W 076°32'0 0.0
2014-Jul-21 20:17N 39°14' W 076°32'0 0.0
2014-Jul-21 19:32N 39°14' W 076°32'0 0.0
2014-Jul-21 18:29N 39°14' W 076°32'0 0.0
2014-Jul-21 17:32N 39°14' W 076°32'0 0.0
2014-Jul-21 16:32N 39°14' W 076°32'0 0.0
2014-Jul-21 15:32N 39°14' W 076°32'0 0.0
2014-Jul-21 14:32N 39°14' W 076°32'0 0.0
2014-Jul-21 13:32N 39°14' W 076°32'0 0.0
2014-Jul-21 12:32N 39°14' W 076°32'0 0.0
2014-Jul-21 11:32N 39°14' W 076°32'0 0.0
2014-Jul-21 10:29N 39°14' W 076°32'0 0.0
2014-Jul-21 09:32N 39°14' W 076°32'0 0.0
2014-Jul-21 08:33N 39°14' W 076°32'3 2.6
2014-Jul-21 07:33N 39°12' W 076°31'1111.0
2014-Jul-21 06:34N 39°03' W 076°23'1616.5
2014-Jul-21 05:33N 38°46' W 076°26'9418.4
2014-Jul-21 00:26N 37°13' W 076°09'1516.9
2014-Jul-20 23:33N 36°60' W 076°01'1110.5
2014-Jul-20 22:30N 37°00' W 076°15'9 1.3
2014-Jul-20 15:25N 36°58' W 076°26'0 0.0
2014-Jul-20 13:04N 36°58' W 076°26'0 0.0
2014-Jul-20 11:13N 36°58' W 076°26'0 0.2
2014-Jul-20 10:27N 36°58' W 076°26'5 5.6
2014-Jul-20 09:33N 36°59' W 076°20'1616.0
2014-Jul-20 08:33N 36°57' W 076°00'1212.2
2014-Jul-20 07:33N 36°50' W 075°47'1212.6
2014-Jul-20 06:33N 36°57' W 075°34'78 2.2
2014-Jul-18 18:16N 37°51' W 074°23'1 0.8
2014-Jul-18 17:24N 37°52' W 074°22'47312.8
2014-Jul-17 04:32N 32°02' W 080°50'1111.3
2014-Jul-17 03:33N 32°05' W 081°03'3 2.7
2014-Jul-17 02:33N 32°05' W 081°06'0 0.0
2014-Jul-17 01:31N 32°05' W 081°06'0 0.0
2014-Jul-17 00:31N 32°05' W 081°06'0 0.0
2014-Jul-16 23:31N 32°05' W 081°06'0 0.1
2014-Jul-16 15:33N 32°06' W 081°06'2 1.8
2014-Jul-16 14:33N 32°05' W 081°04'1110.9
2014-Jul-16 13:34N 32°02' W 080°52'313 8.7
2014-Jul-15 01:22N 26°55' W 079°44'1620.3
2014-Jul-15 00:33N 26°38' W 079°45'2020.0
2014-Jul-14 23:33N 26°18' W 079°48'2020.1
2014-Jul-14 22:33N 25°58' W 079°50'2019.7
2014-Jul-14 21:33N 25°39' W 079°53'2418.7
2014-Jul-14 20:15N 25°16' W 080°01'1419.0
2014-Jul-14 19:31N 25°03' W 080°08'  
Track history (hours):
 
Tides and Currents Weather Stations Pressure Air Temp Water Temp Dewpoint Dewpoint Depression Visibility Wind Speed Wind Dir Waves Ship Positions

Oberon

Last reported at 2014-Jul-23 06:26 UTC. Time now 2014-Jul-25 16:06 UTC.
Position N 36°50' W 075°29'.

Length 232 m; draft 9.4 m.

Type: Cargo ship. MMSI: 266283000.

Date/timePositionNaut miles runAvg speedWind from/ knotsBaromVisibWave heightAir tempDewpointWater temp
2014-Jul-23 06:26N 36°50' W 075°29'1616.8
2014-Jul-23 05:30N 36°50' W 075°49'1515.8
2014-Jul-23 04:33N 37°01' W 076°02'1717.4
2014-Jul-23 03:34N 37°18' W 076°07'1817.7
2014-Jul-23 02:33N 37°35' W 076°04'1717.1
2014-Jul-23 01:34N 37°52' W 076°10'2018.7
2014-Jul-23 00:30N 38°11' W 076°14'3719.2
2014-Jul-22 22:33N 38°47' W 076°25'1716.8
2014-Jul-22 21:33N 39°04' W 076°24'1211.9
2014-Jul-22 20:33N 39°14' W 076°33'2 2.1
2014-Jul-22 19:33N 39°15' W 076°35'0 0.0
2014-Jul-22 18:33N 39°15' W 076°35'0 0.0
2014-Jul-22 17:30N 39°15' W 076°35'0 0.0
2014-Jul-22 16:33N 39°15' W 076°35'0 0.0
2014-Jul-22 15:33N 39°15' W 076°35'0 0.0
2014-Jul-22 14:33N 39°15' W 076°35'0 0.0
2014-Jul-22 13:33N 39°15' W 076°35'0 0.0
2014-Jul-22 12:30N 39°15' W 076°35'0 0.0
2014-Jul-22 11:33N 39°15' W 076°35'0 0.0
2014-Jul-22 10:33N 39°15' W 076°35'0 0.0
2014-Jul-22 09:33N 39°15' W 076°35'0 0.0
2014-Jul-22 08:33N 39°15' W 076°35'0 0.0
2014-Jul-22 07:33N 39°15' W 076°35'0 0.0
2014-Jul-22 06:33N 39°15' W 076°35'0 0.0
2014-Jul-22 05:33N 39°15' W 076°35'0 0.0
2014-Jul-22 04:33N 39°15' W 076°35'2 2.2
2014-Jul-22 03:33N 39°14' W 076°32'1 0.5
2014-Jul-22 02:32N 39°14' W 076°32'0 0.0
2014-Jul-22 01:32N 39°14' W 076°32'0 0.0
2014-Jul-22 00:32N 39°14' W 076°32'0 0.0
2014-Jul-21 23:32N 39°14' W 076°32'0 0.0
2014-Jul-21 22:32N 39°14' W 076°32'0 0.0
2014-Jul-21 21:32N 39°14' W 076°32'0 0.0
2014-Jul-21 20:32N 39°14' W 076°32'0 0.0
2014-Jul-21 20:17N 39°14' W 076°32'0 0.0
2014-Jul-21 19:32N 39°14' W 076°32'0 0.0
2014-Jul-21 18:29N 39°14' W 076°32'0 0.0
2014-Jul-21 17:32N 39°14' W 076°32'0 0.0
2014-Jul-21 16:32N 39°14' W 076°32'0 0.0
2014-Jul-21 15:32N 39°14' W 076°32'0 0.0
2014-Jul-21 14:32N 39°14' W 076°32'0 0.0
2014-Jul-21 13:32N 39°14' W 076°32'0 0.0
2014-Jul-21 12:32N 39°14' W 076°32'0 0.0
2014-Jul-21 11:32N 39°14' W 076°32'0 0.0
2014-Jul-21 10:29N 39°14' W 076°32'0 0.0
2014-Jul-21 09:32N 39°14' W 076°32'0 0.0
2014-Jul-21 08:33N 39°14' W 076°32'3 2.6
2014-Jul-21 07:33N 39°12' W 076°31'1111.0
2014-Jul-21 06:34N 39°03' W 076°23'1616.5
2014-Jul-21 05:33N 38°46' W 076°26'9418.4
2014-Jul-21 00:26N 37°13' W 076°09'1516.9
2014-Jul-20 23:33N 36°60' W 076°01'1110.5
2014-Jul-20 22:30N 37°00' W 076°15'9 1.3
2014-Jul-20 15:25N 36°58' W 076°26'0 0.0
2014-Jul-20 13:04N 36°58' W 076°26'0 0.0
2014-Jul-20 11:13N 36°58' W 076°26'0 0.2
2014-Jul-20 10:27N 36°58' W 076°26'5 5.6
2014-Jul-20 09:33N 36°59' W 076°20'1616.0
2014-Jul-20 08:33N 36°57' W 076°00'1212.2
2014-Jul-20 07:33N 36°50' W 075°47'1212.6
2014-Jul-20 06:33N 36°57' W 075°34'78 2.2
2014-Jul-18 18:16N 37°51' W 074°23'1 0.8
2014-Jul-18 17:24N 37°52' W 074°22'47312.8
2014-Jul-17 04:32N 32°02' W 080°50'1111.3
2014-Jul-17 03:33N 32°05' W 081°03'3 2.7
2014-Jul-17 02:33N 32°05' W 081°06'0 0.0
2014-Jul-17 01:31N 32°05' W 081°06'0 0.0
2014-Jul-17 00:31N 32°05' W 081°06'0 0.0
2014-Jul-16 23:31N 32°05' W 081°06'0 0.1
2014-Jul-16 15:33N 32°06' W 081°06'2 1.8
2014-Jul-16 14:33N 32°05' W 081°04'1110.9
2014-Jul-16 13:34N 32°02' W 080°52'313 8.7
2014-Jul-15 01:22N 26°55' W 079°44'1620.3
2014-Jul-15 00:33N 26°38' W 079°45'2020.0
2014-Jul-14 23:33N 26°18' W 079°48'2020.1
2014-Jul-14 22:33N 25°58' W 079°50'2019.7
2014-Jul-14 21:33N 25°39' W 079°53'2418.7
2014-Jul-14 20:15N 25°16' W 080°01'1419.0
2014-Jul-14 19:31N 25°03' W 080°08'  

Dump ship's entire track history